createdAt,value
2018-12-03T00:00:25.461Z,8.70
2018-12-03T00:02:59.679Z,8.70
2018-12-03T00:05:28.013Z,8.80
2018-12-03T00:07:56.284Z,8.80
2018-12-03T00:11:14.589Z,8.90
2018-12-03T00:19:01.023Z,8.90
2018-12-03T00:26:28.927Z,9.00
2018-12-03T00:33:55.212Z,8.90
2018-12-03T00:41:22.960Z,8.80
2018-12-03T00:48:49.114Z,8.80
2018-12-03T00:56:15.450Z,8.80
2018-12-03T01:03:43.448Z,8.70
2018-12-03T01:11:09.401Z,8.70
2018-12-03T01:18:37.290Z,8.70
2018-12-03T01:26:04.971Z,8.60
2018-12-03T01:33:32.420Z,8.70
2018-12-03T01:40:58.804Z,8.60
2018-12-03T01:48:25.058Z,8.60
2018-12-03T01:55:51.427Z,8.70
2018-12-03T02:03:19.023Z,8.70
2018-12-03T02:10:46.493Z,8.70
2018-12-03T02:18:14.456Z,8.70
2018-12-03T02:25:42.042Z,8.80
2018-12-03T02:35:40.239Z,8.90
2018-12-03T02:43:06.178Z,9.00
2018-12-03T02:50:32.465Z,9.00
2018-12-03T02:55:49.951Z,8.90
2018-12-03T03:03:17.423Z,8.80
2018-12-03T03:10:45.337Z,8.80
2018-12-03T03:18:13.050Z,8.90
2018-12-03T03:25:40.924Z,9.00
2018-12-03T03:33:07.160Z,9.10
2018-12-03T03:40:33.714Z,9.10
2018-12-03T03:48:00.096Z,9.10
2018-12-03T03:58:29.550Z,9.10
2018-12-03T04:05:57.544Z,9.10
2018-12-03T04:11:15.302Z,9.10
2018-12-03T04:18:41.519Z,9.10
2018-12-03T04:26:07.739Z,9.30
2018-12-03T04:33:34.108Z,9.40
2018-12-03T04:41:00.264Z,9.30
2018-12-03T04:48:26.938Z,9.20
2018-12-03T04:55:53.428Z,9.00
2018-12-03T05:03:19.731Z,9.10
2018-12-03T05:11:06.281Z,9.10
2018-12-03T05:18:33.911Z,9.00
2018-12-03T05:26:01.539Z,9.20
2018-12-03T05:33:29.322Z,9.30
2018-12-03T05:40:56.789Z,9.20
2018-12-03T05:48:25.175Z,9.00
2018-12-03T05:53:42.933Z,9.00
2018-12-03T06:01:10.505Z,9.00
2018-12-03T06:08:38.220Z,9.00
2018-12-03T06:16:05.788Z,9.10
2018-12-03T06:23:31.935Z,9.20
2018-12-03T06:30:58.104Z,9.10
2018-12-03T06:38:25.798Z,9.00
2018-12-03T06:45:53.276Z,9.00
2018-12-03T06:53:19.578Z,8.80
2018-12-03T07:00:45.744Z,8.80
2018-12-03T07:10:43.895Z,8.90
2018-12-03T07:18:10.171Z,8.90
2018-12-03T07:25:37.666Z,9.00
2018-12-03T07:33:05.366Z,9.00
2018-12-03T07:40:33.011Z,9.10
2018-12-03T07:48:00.659Z,9.10
2018-12-03T07:55:28.383Z,9.10
2018-12-03T08:02:55.867Z,9.20
2018-12-03T08:10:23.623Z,9.30
2018-12-03T08:17:51.463Z,9.30
2018-12-03T08:25:17.643Z,9.30
2018-12-03T08:32:43.710Z,9.30
2018-12-03T08:40:09.957Z,9.30
2018-12-03T08:47:37.583Z,9.40
2018-12-03T08:55:03.706Z,9.50
2018-12-03T09:02:31.368Z,9.60
2018-12-03T09:10:18.247Z,9.80
2018-12-03T09:17:44.654Z,10.00
2018-12-03T09:25:12.433Z,10.20
2018-12-03T09:32:38.749Z,10.40
2018-12-03T09:40:05.094Z,10.40
2018-12-03T09:47:33.083Z,10.30
2018-12-03T09:54:59.492Z,10.30
2018-12-03T10:02:27.156Z,10.40
2018-12-03T10:09:54.941Z,10.70
2018-12-03T10:18:06.826Z,10.90
2018-12-03T10:25:34.759Z,11.10
2018-12-03T10:33:02.299Z,11.20
2018-12-03T10:40:28.329Z,11.30
2018-12-03T10:47:55.972Z,11.50
2018-12-03T10:53:13.553Z,11.70
2018-12-03T11:00:40.109Z,11.90
2018-12-03T11:05:57.455Z,12.00
2018-12-03T11:13:25.112Z,12.00
2018-12-03T11:20:52.994Z,12.10
2018-12-03T11:28:20.842Z,12.10
2018-12-03T11:36:07.450Z,12.10
2018-12-03T11:43:33.846Z,12.20
2018-12-03T11:51:00.223Z,12.30
2018-12-03T11:58:27.971Z,12.40
2018-12-03T12:03:45.572Z,12.40
2018-12-03T12:11:11.579Z,12.40
2018-12-03T12:18:37.883Z,12.30
2018-12-03T12:26:03.948Z,12.30
2018-12-03T12:33:30.127Z,12.10
2018-12-03T12:40:56.547Z,12.00
2018-12-03T12:46:15.667Z,12.00
2018-12-03T12:54:02.054Z,11.80
2018-12-03T13:01:29.704Z,11.70
2018-12-03T13:08:55.919Z,11.50
2018-12-03T13:16:23.453Z,11.50
2018-12-03T13:23:51.084Z,11.30
2018-12-03T13:31:17.490Z,11.30
2018-12-03T13:38:45.060Z,11.30
2018-12-03T13:46:11.278Z,11.40
2018-12-03T13:53:37.473Z,11.40
2018-12-03T14:01:03.672Z,11.40
2018-12-03T14:06:40.054Z,11.30
2018-12-03T14:14:30.498Z,11.10
2018-12-03T14:21:56.895Z,11.10
2018-12-03T14:29:24.408Z,11.00
2018-12-03T14:36:52.108Z,10.90
2018-12-03T14:44:25.177Z,10.90
2018-12-03T14:51:51.256Z,10.90
2018-12-03T14:59:19.469Z,10.80
2018-12-03T15:06:47.253Z,10.70
2018-12-03T15:12:05.006Z,10.70
2018-12-03T15:19:31.196Z,10.70
2018-12-03T15:26:57.347Z,10.60
2018-12-03T15:34:25.088Z,10.60
2018-12-03T15:41:52.535Z,10.50
2018-12-03T15:49:18.755Z,10.50
2018-12-03T15:56:47.590Z,10.40
2018-12-03T16:02:05.156Z,10.40
2018-12-03T16:09:32.684Z,10.40
2018-12-03T16:17:00.448Z,10.40
2018-12-03T16:24:28.126Z,10.40
2018-12-03T16:31:56.032Z,10.40
2018-12-03T16:39:22.443Z,10.30
2018-12-03T16:46:47.826Z,10.40
2018-12-03T16:52:05.306Z,10.40
2018-12-03T16:59:32.828Z,10.30
2018-12-03T17:07:00.415Z,10.20
2018-12-03T17:14:28.185Z,10.30
2018-12-03T17:21:55.696Z,10.20
2018-12-03T17:29:21.885Z,10.20
2018-12-03T17:36:49.630Z,10.10
2018-12-03T17:44:16.155Z,10.20
2018-12-03T17:51:42.118Z,10.10
2018-12-03T17:59:28.853Z,10.00
2018-12-03T18:07:15.144Z,9.90
2018-12-03T18:14:43.839Z,9.80
2018-12-03T18:22:12.197Z,9.80
2018-12-03T18:29:39.967Z,10.00
2018-12-03T18:37:04.915Z,10.00
2018-12-03T18:44:32.687Z,9.90
2018-12-03T18:52:00.573Z,9.80
2018-12-03T19:02:21.412Z,9.90
2018-12-03T19:07:20.007Z,9.90
2018-12-03T19:14:47.559Z,9.70
2018-12-03T19:22:15.358Z,9.70
2018-12-03T19:29:41.328Z,9.80
2018-12-03T19:37:08.996Z,10.40
2018-12-03T19:42:26.822Z,10.20
2018-12-03T19:49:54.494Z,9.70
2018-12-03T19:57:20.624Z,9.60
2018-12-03T20:04:48.537Z,9.20
2018-12-03T20:12:16.083Z,9.10
2018-12-03T20:19:42.399Z,9.00
2018-12-03T20:25:00.230Z,8.90
2018-12-03T20:32:26.159Z,8.90
2018-12-03T20:39:53.875Z,8.90
2018-12-03T20:47:21.753Z,9.00
2018-12-03T20:54:49.399Z,8.90
2018-12-03T21:02:35.788Z,8.90
2018-12-03T21:10:03.597Z,8.80
2018-12-03T21:17:31.107Z,8.80
2018-12-03T21:24:57.424Z,8.70
2018-12-03T21:32:23.766Z,8.60
2018-12-03T21:39:51.604Z,8.60
2018-12-03T21:47:17.986Z,8.50
2018-12-03T21:54:45.727Z,8.50
2018-12-03T22:02:12.527Z,8.50
2018-12-03T22:09:40.424Z,8.60
2018-12-03T22:17:27.113Z,8.60
2018-12-03T22:24:53.484Z,8.50
2018-12-03T22:32:21.427Z,8.50
2018-12-03T22:39:48.902Z,8.50
2018-12-03T22:47:14.888Z,8.40
2018-12-03T22:54:42.483Z,8.30
2018-12-03T23:02:08.727Z,8.30
2018-12-03T23:09:35.150Z,8.40
2018-12-03T23:17:01.495Z,8.40
2018-12-03T23:24:29.102Z,8.40
2018-12-03T23:31:53.871Z,8.40
2018-12-03T23:39:21.492Z,8.40
2018-12-03T23:46:47.814Z,8.40
2018-12-03T23:54:14.004Z,8.40
